Time,TemperatureF,DewpointF,PressureIn,WindDirection,WindDirectionDegrees,WindSpeedMPH,WindSpeedGustMPH,Humidity,HourlyPrecipIn,Conditions,Clouds,dailyrainin,SoftwareType,DateUTC
2013-03-23 00:00:00,33.1,1.1,29.88,SW,233,3.6,3.6,25,0.00,,---,0.00,VWS V14.01,2013-03-23 04:00:00,
2013-03-23 00:05:00,32.9,0.9,29.88,SW,233,3.6,3.6,25,0.00,,---,0.00,VWS V14.01,2013-03-23 04:05:00,
2013-03-23 00:10:00,32.7,0.8,29.88,WSW,239,3.6,3.6,25,0.00,,---,0.00,VWS V14.01,2013-03-23 04:10:00,
2013-03-23 00:15:00,32.7,0.8,29.88,WSW,239,3.6,3.6,25,0.00,,---,0.00,VWS V14.01,2013-03-23 04:15:00,
2013-03-23 00:20:00,32.7,0.8,29.88,WSW,239,3.6,3.6,25,0.00,,---,0.00,VWS V14.01,2013-03-23 04:20:00,
2013-03-23 00:25:00,32.7,0.8,29.88,West,277,2.7,2.7,25,0.00,,---,0.00,VWS V14.01,2013-03-23 04:25:00,
2013-03-23 00:30:00,32.5,0.6,29.88,WSW,250,6.3,6.3,25,0.00,,---,0.00,VWS V14.01,2013-03-23 04:30:00,
2013-03-23 00:35:00,32.5,0.6,29.88,SW,225,2.7,2.7,25,0.00,,---,0.00,VWS V14.01,2013-03-23 04:35:00,
2013-03-23 00:40:00,32.5,0.6,29.88,SW,225,2.7,2.7,25,0.00,,---,0.00,VWS V14.01,2013-03-23 04:40:00,
2013-03-23 00:45:00,32.2,0.3,29.88,SW,225,2.7,2.7,25,0.00,,---,0.00,VWS V14.01,2013-03-23 04:45:00,
2013-03-23 00:50:00,32.0,2.6,29.88,SW,236,2.7,2.7,28,0.00,,---,0.00,VWS V14.01,2013-03-23 04:50:00,
2013-03-23 00:55:00,31.8,2.4,29.88,SW,236,2.7,2.7,28,0.00,,---,0.00,VWS V14.01,2013-03-23 04:55:00,
2013-03-23 01:00:00,31.5,2.1,29.88,SW,236,3.6,3.6,28,0.00,,---,0.00,VWS V14.01,2013-03-23 05:00:00,
2013-03-23 01:05:00,31.3,2.0,29.88,WSW,253,3.1,3.1,28,0.00,,---,0.00,VWS V14.01,2013-03-23 05:05:00,
2013-03-23 01:10:00,30.9,3.1,29.88,WSW,253,3.1,3.1,30,0.00,,---,0.00,VWS V14.01,2013-03-23 05:10:00,
2013-03-23 01:15:00,30.9,3.1,29.88,SSW,213,3.1,3.1,30,0.00,,---,0.00,VWS V14.01,2013-03-23 05:15:00,
2013-03-23 01:20:00,30.9,3.1,29.88,SSW,213,3.1,3.1,30,0.00,,---,0.00,VWS V14.01,2013-03-23 05:20:00,
2013-03-23 01:25:00,30.9,3.1,29.88,WSW,257,5.8,5.8,30,0.00,,---,0.00,VWS V14.01,2013-03-23 05:25:00,
2013-03-23 01:30:00,30.9,3.1,29.88,WSW,255,4.0,4.0,30,0.00,,---,0.00,VWS V14.01,2013-03-23 05:30:00,
2013-03-23 01:35:00,30.7,3.7,29.88,SW,221,4.5,4.5,31,0.00,,---,0.00,VWS V14.01,2013-03-23 05:35:00,
2013-03-23 01:40:00,30.7,3.7,29.88,West,270,3.6,3.6,31,0.00,,---,0.00,VWS V14.01,2013-03-23 05:40:00,
2013-03-23 01:45:00,30.6,3.5,29.88,WSW,252,6.3,6.3,31,0.00,,---,0.00,VWS V14.01,2013-03-23 05:45:00,
2013-03-23 01:50:00,30.2,3.2,29.88,West,260,3.1,3.1,31,0.00,,---,0.00,VWS V14.01,2013-03-23 05:50:00,
2013-03-23 01:56:00,30.0,3.1,29.88,WSW,248,3.6,3.6,31,0.00,,---,0.00,VWS V14.01,2013-03-23 05:56:00,
2013-03-23 02:01:00,29.7,2.7,29.88,WSW,248,3.6,3.6,31,0.00,,---,0.00,VWS V14.01,2013-03-23 06:01:00,
2013-03-23 02:06:00,29.5,2.6,29.88,WSW,247,3.6,3.6,31,0.00,,---,0.00,VWS V14.01,2013-03-23 06:06:00,
2013-03-23 02:11:00,29.5,3.3,29.88,SW,235,4.9,4.9,32,0.00,,---,0.00,VWS V14.01,2013-03-23 06:11:00,
2013-03-23 02:16:00,29.5,3.3,29.88,WSW,248,4.0,4.0,32,0.00,,---,0.00,VWS V14.01,2013-03-23 06:16:00,
2013-03-23 02:21:00,29.5,3.3,29.88,West,265,4.0,4.0,32,0.00,,---,0.00,VWS V14.01,2013-03-23 06:21:00,
2013-03-23 02:26:00,29.5,3.3,29.88,West,265,4.0,4.0,32,0.00,,---,0.00,VWS V14.01,2013-03-23 06:26:00,
2013-03-23 02:31:00,29.3,3.1,29.88,SW,235,3.1,3.1,32,0.00,,---,0.00,VWS V14.01,2013-03-23 06:31:00,
2013-03-23 02:36:00,29.1,3.0,29.88,WSW,253,4.9,4.9,32,0.00,,---,0.00,VWS V14.01,2013-03-23 06:36:00,
2013-03-23 02:41:00,29.1,3.0,29.88,SW,218,3.1,3.1,32,0.00,,---,0.00,VWS V14.01,2013-03-23 06:41:00,
2013-03-23 02:46:00,28.8,3.3,29.88,SW,220,2.7,2.7,33,0.00,,---,0.00,VWS V14.01,2013-03-23 06:46:00,
2013-03-23 02:51:00,28.6,3.1,29.88,SW,228,2.7,2.7,33,0.00,,---,0.00,VWS V14.01,2013-03-23 06:51:00,
2013-03-23 02:56:00,28.6,3.1,29.88,SW,228,2.7,2.7,33,0.00,,---,0.00,VWS V14.01,2013-03-23 06:56:00,
2013-03-23 03:01:00,28.8,3.9,29.88,West,264,3.6,3.6,34,0.00,,---,0.00,VWS V14.01,2013-03-23 07:01:00,
2013-03-23 03:06:00,28.8,3.9,29.88,West,260,4.0,4.0,34,0.00,,---,0.00,VWS V14.01,2013-03-23 07:06:00,
2013-03-23 03:11:00,28.9,4.1,29.88,West,273,4.9,4.9,34,0.00,,---,0.00,VWS V14.01,2013-03-23 07:11:00,
2013-03-23 03:16:00,28.9,4.1,29.88,WNW,289,5.8,5.8,34,0.00,,---,0.00,VWS V14.01,2013-03-23 07:16:00,
2013-03-23 03:21:00,28.8,3.9,29.85,WNW,289,5.8,5.8,34,0.00,,---,0.00,VWS V14.01,2013-03-23 07:21:00,
2013-03-23 03:26:00,28.8,3.9,29.85,West,278,3.6,3.6,34,0.00,,---,0.00,VWS V14.01,2013-03-23 07:26:00,
2013-03-23 03:32:00,28.6,3.8,29.85,SW,233,3.1,3.1,34,0.00,,---,0.00,VWS V14.01,2013-03-23 07:32:00,
2013-03-23 03:37:00,28.4,3.6,29.85,SW,232,4.0,4.0,34,0.00,,---,0.00,VWS V14.01,2013-03-23 07:37:00,
2013-03-23 03:42:00,28.4,3.6,29.85,West,261,3.6,3.6,34,0.00,,---,0.00,VWS V14.01,2013-03-23 07:42:00,
2013-03-23 03:47:00,28.2,4.1,29.85,West,268,2.2,2.2,35,0.00,,---,0.00,VWS V14.01,2013-03-23 07:47:00,
2013-03-23 03:52:00,28.2,4.1,29.85,WNW,285,2.7,2.7,35,0.00,,---,0.00,VWS V14.01,2013-03-23 07:52:00,
2013-03-23 03:57:00,28.0,3.9,29.85,SW,235,2.7,2.7,35,0.00,,---,0.00,VWS V14.01,2013-03-23 07:57:00,
2013-03-23 04:02:00,27.7,3.6,29.85,WSW,247,0.0,0.0,35,0.00,,---,0.00,VWS V14.01,2013-03-23 08:02:00,
2013-03-23 04:07:00,27.5,2.8,29.85,SW,231,0.0,0.0,34,0.00,,---,0.00,VWS V14.01,2013-03-23 08:07:00,
2013-03-23 04:12:00,27.1,3.1,29.85,SSW,196,0.0,0.0,35,0.00,,---,0.00,VWS V14.01,2013-03-23 08:12:00,
2013-03-23 04:17:00,27.1,3.1,29.85,WSW,245,3.6,3.6,35,0.00,,---,0.00,VWS V14.01,2013-03-23 08:17:00,
2013-03-23 04:22:00,27.3,3.9,29.85,WSW,251,3.6,3.6,36,0.00,,---,0.00,VWS V14.01,2013-03-23 08:22:00,
2013-03-23 04:27:00,27.5,4.7,29.85,West,278,4.5,4.5,37,0.00,,---,0.00,VWS V14.01,2013-03-23 08:27:00,
2013-03-23 04:32:00,27.9,5.0,29.85,WSW,251,2.7,2.7,37,0.00,,---,0.00,VWS V14.01,2013-03-23 08:32:00,
2013-03-23 04:37:00,28.2,5.9,29.85,SW,234,5.4,5.4,38,0.00,,---,0.00,VWS V14.01,2013-03-23 08:37:00,
2013-03-23 04:42:00,28.4,6.1,29.85,SW,226,4.0,4.0,38,0.00,,---,0.00,VWS V14.01,2013-03-23 08:42:00,
2013-03-23 04:47:00,28.6,5.6,29.85,West,260,3.6,3.6,37,0.00,,---,0.00,VWS V14.01,2013-03-23 08:47:00,
2013-03-23 04:52:00,28.6,5.6,29.85,West,278,2.7,2.7,37,0.00,,---,0.00,VWS V14.01,2013-03-23 08:52:00,
2013-03-23 04:57:00,28.6,5.6,29.85,WSW,250,3.6,3.6,37,0.00,,---,0.00,VWS V14.01,2013-03-23 08:57:00,
2013-03-23 05:02:00,28.9,5.9,29.85,WSW,254,4.9,4.9,37,0.00,,---,0.00,VWS V14.01,2013-03-23 09:02:00,
2013-03-23 05:07:00,28.9,5.9,29.85,WSW,257,6.3,6.3,37,0.00,,---,0.00,VWS V14.01,2013-03-23 09:07:00,
2013-03-23 05:12:00,29.1,5.5,29.85,WSW,244,3.1,3.1,36,0.00,,---,0.00,VWS V14.01,2013-03-23 09:12:00,
2013-03-23 05:17:00,29.1,5.5,29.85,West,262,6.3,6.3,36,0.00,,---,0.00,VWS V14.01,2013-03-23 09:17:00,
2013-03-23 05:22:00,29.1,5.5,29.85,West,262,6.3,6.3,36,0.00,,---,0.00,VWS V14.01,2013-03-23 09:22:00,
2013-03-23 05:27:00,29.1,5.5,29.85,WSW,247,4.0,4.0,36,0.00,,---,0.00,VWS V14.01,2013-03-23 09:27:00,
2013-03-23 05:32:00,28.8,4.6,29.85,WSW,247,4.0,4.0,35,0.00,,---,0.00,VWS V14.01,2013-03-23 09:32:00,
2013-03-23 05:37:00,28.6,4.4,29.85,SW,227,4.0,4.0,35,0.00,,---,0.43,VWS V14.01,2013-03-23 09:37:00,
2013-03-23 05:42:00,28.6,5.0,29.85,SW,233,3.6,3.6,36,0.00,,---,0.00,VWS V14.01,2013-03-23 09:42:00,
2013-03-23 05:47:00,28.6,5.6,29.88,WSW,254,3.6,3.6,37,0.00,,---,0.00,VWS V14.01,2013-03-23 09:47:00,
2013-03-23 05:52:00,28.6,5.6,29.88,WSW,254,3.6,3.6,37,0.00,,---,0.00,VWS V14.01,2013-03-23 09:52:00,
2013-03-23 05:57:00,28.4,5.5,29.88,WSW,251,4.0,4.0,37,0.00,,---,0.00,VWS V14.01,2013-03-23 09:57:00,
2013-03-23 06:02:00,28.4,6.1,29.88,WSW,248,5.8,5.8,38,0.00,,---,0.00,VWS V14.01,2013-03-23 10:02:00,
2013-03-23 06:07:00,28.4,6.1,29.88,SW,221,3.6,3.6,38,0.00,,---,0.00,VWS V14.01,2013-03-23 10:07:00,
2013-03-23 06:12:00,28.4,6.1,29.88,West,260,6.7,6.7,38,0.00,,---,0.00,VWS V14.01,2013-03-23 10:12:00,
2013-03-23 06:17:00,28.6,5.6,29.88,West,260,6.7,6.7,37,0.00,,---,0.00,VWS V14.01,2013-03-23 10:17:00,
2013-03-23 06:22:00,28.6,5.6,29.88,SW,221,4.0,4.0,37,0.00,,---,0.00,VWS V14.01,2013-03-23 10:22:00,
2013-03-23 06:28:00,28.6,5.6,29.88,WSW,254,4.9,4.9,37,0.00,,---,0.00,VWS V14.01,2013-03-23 10:28:00,
2013-03-23 06:33:00,28.4,6.1,29.88,West,259,4.0,4.0,38,0.00,,---,0.00,VWS V14.01,2013-03-23 10:33:00,
2013-03-23 06:38:00,28.4,6.1,29.88,SW,216,5.8,5.8,38,0.00,,---,0.00,VWS V14.01,2013-03-23 10:38:00,
2013-03-23 06:43:00,28.4,6.1,29.88,West,271,5.4,5.4,38,0.00,,---,0.00,VWS V14.01,2013-03-23 10:43:00,
2013-03-23 06:48:00,28.4,6.1,29.88,West,266,5.8,5.8,38,0.00,,---,0.00,VWS V14.01,2013-03-23 10:48:00,
2013-03-23 06:53:00,28.4,6.1,29.88,WSW,249,5.8,5.8,38,0.00,,---,0.00,VWS V14.01,2013-03-23 10:53:00,
2013-03-23 06:58:00,28.4,6.1,29.88,WSW,249,5.8,5.8,38,0.00,,---,0.00,VWS V14.01,2013-03-23 10:58:00,
2013-03-23 07:03:00,28.6,5.6,29.88,West,260,6.3,6.3,37,0.00,,---,0.00,VWS V14.01,2013-03-23 11:03:00,
2013-03-23 07:08:00,28.6,5.6,29.88,WSW,242,5.8,5.8,37,0.00,,---,0.00,VWS V14.01,2013-03-23 11:08:00,
2013-03-23 07:13:00,28.6,5.6,29.88,WSW,242,5.8,5.8,37,0.00,,---,0.00,VWS V14.01,2013-03-23 11:13:00,
2013-03-23 07:18:00,28.6,5.6,29.88,SSW,208,3.1,3.1,37,0.00,,---,0.00,VWS V14.01,2013-03-23 11:18:00,
2013-03-23 07:23:00,28.8,5.8,29.88,SSW,208,3.1,3.1,37,0.00,,---,0.00,VWS V14.01,2013-03-23 11:23:00,
2013-03-23 07:28:00,28.8,5.8,29.88,West,262,5.4,5.4,37,0.00,,---,0.00,VWS V14.01,2013-03-23 11:28:00,
2013-03-23 07:33:00,28.8,5.8,29.88,West,262,5.4,5.4,37,0.00,,---,0.00,VWS V14.01,2013-03-23 11:33:00,
2013-03-23 07:38:00,29.1,6.1,29.88,SW,228,4.0,4.0,37,0.00,,---,0.00,VWS V14.01,2013-03-23 11:38:00,
2013-03-23 07:43:00,29.3,6.3,29.88,South,189,5.4,5.4,37,0.00,,---,0.00,VWS V14.01,2013-03-23 11:43:00,
2013-03-23 07:48:00,29.7,6.0,29.88,WNW,282,3.6,3.6,36,0.00,,---,0.00,VWS V14.01,2013-03-23 11:48:00,
2013-03-23 07:53:00,30.0,6.3,29.88,West,281,6.3,6.3,36,0.00,,---,0.00,VWS V14.01,2013-03-23 11:53:00,
2013-03-23 07:58:00,30.7,5.7,29.88,WSW,254,4.0,4.0,34,0.00,,---,0.00,VWS V14.01,2013-03-23 11:58:00,
2013-03-23 08:03:00,31.1,6.0,29.88,WSW,254,4.0,4.0,34,0.00,,---,0.00,VWS V14.01,2013-03-23 12:03:00,
2013-03-23 08:08:00,31.5,5.7,29.88,NW,309,5.8,5.8,33,0.00,,---,0.00,VWS V14.01,2013-03-23 12:08:00,
2013-03-23 08:13:00,32.0,5.5,29.88,SW,230,5.4,5.4,32,0.00,,---,0.00,VWS V14.01,2013-03-23 12:13:00,
2013-03-23 08:18:00,32.2,5.7,29.88,SW,230,4.0,4.0,32,0.00,,---,0.00,VWS V14.01,2013-03-23 12:18:00,
2013-03-23 08:23:00,33.1,5.8,29.88,West,272,8.1,8.1,31,0.00,,---,0.00,VWS V14.01,2013-03-23 12:23:00,
2013-03-23 08:28:00,33.1,5.8,29.88,West,272,8.1,8.1,31,0.00,,---,0.00,VWS V14.01,2013-03-23 12:28:00,
2013-03-23 08:34:00,33.6,5.5,29.88,West,279,4.0,4.0,30,0.00,,---,0.00,VWS V14.01,2013-03-23 12:34:00,
2013-03-23 08:39:00,34.2,6.0,29.88,NW,310,8.7,8.7,30,0.00,,---,0.00,VWS V14.01,2013-03-23 12:39:00,
2013-03-23 08:44:00,35.1,4.5,29.88,WNW,282,8.3,8.3,27,0.00,,---,0.00,VWS V14.01,2013-03-23 12:44:00,
2013-03-23 08:49:00,38.1,4.5,29.88,WSW,251,3.1,3.1,24,0.00,,---,0.00,VWS V14.01,2013-03-23 12:49:00,
2013-03-23 08:54:00,38.1,4.5,29.88,WNW,286,12.3,12.3,24,0.00,,---,0.00,VWS V14.01,2013-03-23 12:54:00,
2013-03-23 08:59:00,46.4,-0.2,29.88,West,268,8.1,8.1,14,0.00,,---,0.00,VWS V14.01,2013-03-23 12:59:00,
2013-03-23 09:04:00,47.5,0.7,29.88,West,265,10.5,10.5,14,0.00,,---,0.00,VWS V14.01,2013-03-23 13:04:00,
2013-03-23 09:09:00,47.3,0.5,29.88,West,265,10.5,10.5,14,0.00,,---,0.00,VWS V14.01,2013-03-23 13:09:00,
2013-03-23 09:14:00,45.3,0.4,29.88,NW,309,11.9,11.9,15,0.00,,---,0.00,VWS V14.01,2013-03-23 13:14:00,
2013-03-23 09:19:00,44.8,0.0,29.88,West,273,15.0,15.0,15,0.00,,---,0.00,VWS V14.01,2013-03-23 13:19:00,
2013-03-23 09:24:00,47.1,0.4,29.88,West,273,15.0,15.0,14,0.00,,---,0.00,VWS V14.01,2013-03-23 13:24:00,
2013-03-23 09:29:00,47.7,0.8,29.88,WSW,249,8.7,8.7,14,0.00,,---,0.00,VWS V14.01,2013-03-23 13:29:00,
2013-03-23 09:34:00,48.0,1.1,29.88,WSW,245,12.3,12.3,14,0.00,,---,0.00,VWS V14.01,2013-03-23 13:34:00,
2013-03-23 09:39:00,49.1,2.0,29.88,NW,312,5.4,5.4,14,0.00,,---,0.00,VWS V14.01,2013-03-23 13:39:00,
2013-03-23 09:44:00,50.2,2.8,29.88,NW,311,7.2,7.2,14,0.00,,---,0.00,VWS V14.01,2013-03-23 13:44:00,
2013-03-23 09:49:00,48.2,1.2,29.88,West,261,6.3,6.3,14,0.00,,---,0.00,VWS V14.01,2013-03-23 13:49:00,
2013-03-23 09:54:00,48.4,1.4,29.88,WSW,246,8.7,8.7,14,0.00,,---,0.00,VWS V14.01,2013-03-23 13:54:00,
2013-03-23 09:59:00,48.9,1.8,29.88,WSW,246,8.7,8.7,14,0.00,,---,0.00,VWS V14.01,2013-03-23 13:59:00,
2013-03-23 10:04:00,50.5,3.1,29.88,NNW,338,10.1,10.1,14,0.00,,---,0.00,VWS V14.01,2013-03-23 14:04:00,
2013-03-23 10:09:00,50.4,3.0,29.88,NNW,335,5.4,5.4,14,0.00,,---,0.00,VWS V14.01,2013-03-23 14:09:00,
2013-03-23 10:14:00,50.9,3.4,29.85,NNW,335,5.4,5.4,14,0.00,,---,0.00,VWS V14.01,2013-03-23 14:14:00,
2013-03-23 10:19:00,49.6,2.4,29.85,WNW,283,4.0,4.0,14,0.00,,---,0.00,VWS V14.01,2013-03-23 14:19:00,
2013-03-23 10:24:00,48.9,1.8,29.85,West,270,5.8,5.8,14,0.00,,---,0.00,VWS V14.01,2013-03-23 14:24:00,
2013-03-23 10:29:00,48.9,1.8,29.85,WNW,289,9.6,9.6,14,0.00,,---,0.00,VWS V14.01,2013-03-23 14:29:00,
2013-03-23 10:34:00,49.6,2.4,29.85,NNW,333,8.7,8.7,14,0.00,,---,0.00,VWS V14.01,2013-03-23 14:34:00,
2013-03-23 10:39:00,51.4,3.8,29.85,NNW,346,5.8,5.8,14,0.00,,---,0.00,VWS V14.01,2013-03-23 14:39:00,
2013-03-23 10:44:00,52.9,3.4,29.85,NNW,334,6.7,6.7,13,0.00,,---,0.00,VWS V14.01,2013-03-23 14:44:00,
2013-03-23 10:49:00,53.1,3.5,29.85,West,279,4.0,4.0,13,0.00,,---,0.00,VWS V14.01,2013-03-23 14:49:00,
2013-03-23 10:54:00,53.1,3.5,29.85,WSW,240,12.3,12.3,13,0.00,,---,0.00,VWS V14.01,2013-03-23 14:54:00,
2013-03-23 10:59:00,50.4,3.0,29.85,SW,227,5.8,5.8,14,0.00,,---,0.00,VWS V14.01,2013-03-23 14:59:00,
2013-03-23 11:04:00,46.9,0.2,29.85,NW,320,5.4,5.4,14,0.00,,---,0.00,VWS V14.01,2013-03-23 15:04:00,
2013-03-23 11:09:00,46.0,1.0,29.85,West,268,10.5,10.5,15,0.00,,---,0.00,VWS V14.01,2013-03-23 15:09:00,
2013-03-23 11:14:00,45.5,0.6,29.85,WNW,292,11.4,11.4,15,0.00,,---,0.00,VWS V14.01,2013-03-23 15:14:00,
2013-03-23 11:19:00,45.5,0.6,29.85,WNW,292,11.4,11.4,15,0.00,,---,0.00,VWS V14.01,2013-03-23 15:19:00,
2013-03-23 11:24:00,45.7,0.7,29.85,WNW,298,5.8,5.8,15,0.00,,---,0.00,VWS V14.01,2013-03-23 15:24:00,
2013-03-23 11:29:00,46.2,1.1,29.85,NNW,328,8.1,8.1,15,0.00,,---,0.00,VWS V14.01,2013-03-23 15:29:00,
2013-03-23 11:34:00,46.0,1.0,29.85,NNW,328,8.1,8.1,15,0.00,,---,0.00,VWS V14.01,2013-03-23 15:34:00,
2013-03-23 11:39:00,45.9,0.8,29.85,WNW,295,10.1,10.1,15,0.00,,---,0.00,VWS V14.01,2013-03-23 15:39:00,
2013-03-23 11:44:00,45.9,0.8,29.85,WNW,284,8.7,8.7,15,0.00,,---,0.00,VWS V14.01,2013-03-23 15:44:00,
2013-03-23 11:49:00,46.9,0.2,29.85,SW,223,8.3,8.3,14,0.00,,---,0.00,VWS V14.01,2013-03-23 15:49:00,
2013-03-23 11:54:00,46.9,0.2,29.85,WSW,239,4.0,4.0,14,0.00,,---,0.00,VWS V14.01,2013-03-23 15:54:00,
2013-03-23 11:59:00,46.9,0.2,29.85,WSW,239,4.0,4.0,14,0.00,,---,0.00,VWS V14.01,2013-03-23 15:59:00,
2013-03-23 12:04:00,46.9,0.2,29.85,WNW,290,15.0,15.0,14,0.00,,---,0.00,VWS V14.01,2013-03-23 16:04:00,
2013-03-23 12:09:00,47.3,0.5,29.85,WNW,300,10.5,10.5,14,0.00,,---,0.00,VWS V14.01,2013-03-23 16:09:00,
2013-03-23 12:15:00,47.8,1.0,29.85,WSW,241,8.7,8.7,14,0.00,,---,0.00,VWS V14.01,2013-03-23 16:15:00,
2013-03-23 12:20:00,47.8,1.0,29.85,WNW,303,7.6,7.6,14,0.00,,---,0.00,VWS V14.01,2013-03-23 16:20:00,
2013-03-23 12:25:00,47.8,1.0,29.85,WNW,293,5.8,5.8,14,0.00,,---,0.00,VWS V14.01,2013-03-23 16:25:00,
2013-03-23 12:30:00,47.8,1.0,29.85,NNW,338,17.0,17.0,14,0.00,,---,0.00,VWS V14.01,2013-03-23 16:30:00,
2013-03-23 12:36:00,47.8,1.0,29.85,NNW,334,8.3,8.3,14,0.00,,---,0.00,VWS V14.01,2013-03-23 16:36:00,
2013-03-23 12:41:00,50.0,2.7,29.85,West,263,4.0,4.0,14,0.00,,---,0.00,VWS V14.01,2013-03-23 16:41:00,
2013-03-23 12:46:00,50.0,2.7,29.83,WNW,288,8.1,8.1,14,0.00,,---,0.00,VWS V14.01,2013-03-23 16:46:00,
2013-03-23 12:51:00,49.5,2.3,29.83,West,271,15.4,15.4,14,0.00,,---,0.00,VWS V14.01,2013-03-23 16:51:00,
2013-03-23 12:56:00,49.8,2.5,29.83,WNW,291,6.3,6.3,14,0.00,,---,0.00,VWS V14.01,2013-03-23 16:56:00,
2013-03-23 13:02:00,49.8,2.5,29.83,West,260,8.7,8.7,14,0.00,,---,0.00,VWS V14.01,2013-03-23 17:02:00,
2013-03-23 13:07:00,50.2,2.8,29.83,South,189,5.8,5.8,14,0.00,,---,0.00,VWS V14.01,2013-03-23 17:07:00,
2013-03-23 13:12:00,50.2,2.8,29.83,South,189,5.8,5.8,14,0.00,,---,0.00,VWS V14.01,2013-03-23 17:12:00,
2013-03-23 13:17:00,50.7,3.3,29.83,NW,307,8.3,8.3,14,0.00,,---,0.00,VWS V14.01,2013-03-23 17:17:00,
2013-03-23 13:22:00,50.5,3.1,29.83,West,267,8.7,8.7,14,0.00,,---,0.00,VWS V14.01,2013-03-23 17:22:00,
2013-03-23 13:27:00,51.4,3.8,29.83,WNW,293,12.3,12.3,14,0.00,,---,0.00,VWS V14.01,2013-03-23 17:27:00,
2013-03-23 13:32:00,51.8,2.5,29.83,WNW,287,10.1,10.1,13,0.00,,---,0.00,VWS V14.01,2013-03-23 17:32:00,
2013-03-23 13:37:00,52.2,2.8,29.83,NW,313,4.9,4.9,13,0.00,,---,0.00,VWS V14.01,2013-03-23 17:37:00,
2013-03-23 13:42:00,53.1,3.5,29.83,NNW,332,8.7,8.7,13,0.00,,---,0.00,VWS V14.01,2013-03-23 17:42:00,
2013-03-23 13:47:00,53.1,3.5,29.83,West,265,12.3,12.3,13,0.00,,---,0.00,VWS V14.01,2013-03-23 17:47:00,
2013-03-23 13:52:00,52.7,3.2,29.83,West,275,8.7,8.7,13,0.00,,---,0.00,VWS V14.01,2013-03-23 17:52:00,
2013-03-23 13:57:00,52.5,3.1,29.83,WSW,241,11.9,11.9,13,0.00,,---,0.00,VWS V14.01,2013-03-23 17:57:00,
2013-03-23 14:02:00,52.5,3.1,29.80,WSW,241,14.5,14.5,13,0.00,,---,0.00,VWS V14.01,2013-03-23 18:02:00,
2013-03-23 14:07:00,52.3,3.0,29.80,NNW,331,9.6,9.6,13,0.00,,---,0.00,VWS V14.01,2013-03-23 18:07:00,
2013-03-23 14:12:00,52.2,2.8,29.80,WSW,248,11.0,11.0,13,0.00,,---,0.00,VWS V14.01,2013-03-23 18:12:00,
2013-03-23 14:17:00,52.5,3.1,29.80,WSW,248,11.0,11.0,13,0.00,,---,0.00,VWS V14.01,2013-03-23 18:17:00,
2013-03-23 14:22:00,52.5,3.1,29.80,West,277,8.7,8.7,13,0.00,,---,0.00,VWS V14.01,2013-03-23 18:22:00,
2013-03-23 14:27:00,53.1,3.5,29.80,NW,322,11.0,11.0,13,0.00,,---,0.00,VWS V14.01,2013-03-23 18:27:00,
2013-03-23 14:32:00,53.1,3.5,29.80,NW,310,5.8,5.8,13,0.00,,---,0.00,VWS V14.01,2013-03-23 18:32:00,
2013-03-23 14:37:00,53.1,3.5,29.80,WNW,284,15.0,15.0,13,0.00,,---,0.00,VWS V14.01,2013-03-23 18:37:00,
2013-03-23 14:42:00,52.3,3.0,29.80,WNW,295,12.3,12.3,13,0.00,,---,0.00,VWS V14.01,2013-03-23 18:42:00,
2013-03-23 14:47:00,52.3,3.0,29.80,NNW,334,15.4,15.4,13,0.00,,---,0.00,VWS V14.01,2013-03-23 18:47:00,
2013-03-23 14:52:00,51.3,3.7,29.80,NW,305,8.7,8.7,14,0.00,,---,0.00,VWS V14.01,2013-03-23 18:52:00,
2013-03-23 14:57:00,51.3,3.7,29.80,SW,235,8.3,8.3,14,0.00,,---,0.00,VWS V14.01,2013-03-23 18:57:00,
2013-03-23 15:02:00,50.4,3.0,29.80,SW,231,8.7,8.7,14,0.00,,---,0.00,VWS V14.01,2013-03-23 19:02:00,
2013-03-23 15:08:00,50.4,3.0,29.80,NW,312,5.4,5.4,14,0.00,,---,0.00,VWS V14.01,2013-03-23 19:08:00,
2013-03-23 15:13:00,50.4,3.0,29.80,NNE,12,15.0,15.0,14,0.00,,---,0.00,VWS V14.01,2013-03-23 19:13:00,
2013-03-23 15:18:00,49.3,2.1,29.80,WSW,255,10.1,10.1,14,0.00,,---,0.00,VWS V14.01,2013-03-23 19:18:00,
2013-03-23 15:23:00,49.3,2.1,29.80,WNW,295,9.2,9.2,14,0.00,,---,0.00,VWS V14.01,2013-03-23 19:23:00,
2013-03-23 15:28:00,49.3,2.1,29.80,WSW,251,6.3,6.3,14,0.00,,---,0.00,VWS V14.01,2013-03-23 19:28:00,
2013-03-23 15:33:00,49.8,2.5,29.80,WNW,289,9.6,9.6,14,0.00,,---,0.00,VWS V14.01,2013-03-23 19:33:00,
2013-03-23 15:38:00,49.8,2.5,29.80,WNW,292,9.6,9.6,14,0.00,,---,0.00,VWS V14.01,2013-03-23 19:38:00,
2013-03-23 15:43:00,49.1,2.0,29.80,SW,229,8.1,8.1,14,0.00,,---,0.00,VWS V14.01,2013-03-23 19:43:00,
2013-03-23 15:48:00,49.1,2.0,29.80,NNW,331,15.9,15.9,14,0.00,,---,0.00,VWS V14.01,2013-03-23 19:48:00,
2013-03-23 15:53:00,48.9,1.8,29.80,NW,318,6.7,6.7,14,0.00,,---,0.00,VWS V14.01,2013-03-23 19:53:00,
2013-03-23 15:58:00,48.9,1.8,29.80,West,259,6.3,6.3,14,0.00,,---,0.00,VWS V14.01,2013-03-23 19:58:00,
2013-03-23 16:03:00,48.2,1.2,29.80,WNW,299,15.9,15.9,14,0.00,,---,0.00,VWS V14.01,2013-03-23 20:03:00,
2013-03-23 16:08:00,47.7,0.8,29.80,West,264,12.3,12.3,14,0.00,,---,0.00,VWS V14.01,2013-03-23 20:08:00,
2013-03-23 16:13:00,47.5,0.7,29.80,West,273,8.7,8.7,14,0.00,,---,0.00,VWS V14.01,2013-03-23 20:13:00,
2013-03-23 16:18:00,47.5,0.7,29.80,West,261,8.1,8.1,14,0.00,,---,0.00,VWS V14.01,2013-03-23 20:18:00,
2013-03-23 16:23:00,47.5,0.7,29.80,WNW,288,13.2,13.2,14,0.00,,---,0.00,VWS V14.01,2013-03-23 20:23:00,
2013-03-23 16:28:00,47.1,0.4,29.80,WNW,288,15.9,15.9,14,0.00,,---,0.00,VWS V14.01,2013-03-23 20:28:00,
2013-03-23 16:33:00,47.1,0.4,29.80,WNW,292,12.8,12.8,14,0.00,,---,0.00,VWS V14.01,2013-03-23 20:33:00,
2013-03-23 16:38:00,46.9,0.2,29.77,NNW,329,8.3,8.3,14,0.00,,---,0.00,VWS V14.01,2013-03-23 20:38:00,
2013-03-23 16:43:00,46.9,0.2,29.77,NW,315,7.6,7.6,14,0.00,,---,0.00,VWS V14.01,2013-03-23 20:43:00,
2013-03-23 16:48:00,46.9,0.2,29.80,West,267,15.4,15.4,14,0.00,,---,0.00,VWS V14.01,2013-03-23 20:48:00,
2013-03-23 16:53:00,46.8,0.1,29.80,West,267,15.4,15.4,14,0.00,,---,0.00,VWS V14.01,2013-03-23 20:53:00,
2013-03-23 16:58:00,46.6,-0.1,29.80,NW,312,15.4,15.4,14,0.00,,---,0.00,VWS V14.01,2013-03-23 20:58:00,
2013-03-23 17:03:00,46.4,-0.2,29.80,NNW,331,6.7,6.7,14,0.00,,---,0.00,VWS V14.01,2013-03-23 21:03:00,
2013-03-23 17:08:00,46.4,-0.2,29.80,WNW,288,5.4,5.4,14,0.00,,---,0.00,VWS V14.01,2013-03-23 21:08:00,
2013-03-23 17:13:00,46.8,0.1,29.80,North,349,8.7,8.7,14,0.00,,---,0.00,VWS V14.01,2013-03-23 21:13:00,
2013-03-23 17:18:00,46.6,-0.1,29.80,WNW,303,6.3,6.3,14,0.00,,---,0.00,VWS V14.01,2013-03-23 21:18:00,
2013-03-23 17:23:00,46.4,-0.2,29.80,WNW,289,11.0,11.0,14,0.00,,---,0.00,VWS V14.01,2013-03-23 21:23:00,
2013-03-23 17:28:00,46.4,-0.2,29.80,NW,316,8.1,8.1,14,0.00,,---,0.00,VWS V14.01,2013-03-23 21:28:00,
2013-03-23 17:33:00,46.2,1.1,29.80,NW,306,7.2,7.2,15,0.00,,---,0.00,VWS V14.01,2013-03-23 21:33:00,
2013-03-23 17:38:00,46.2,1.1,29.80,NW,311,8.7,8.7,15,0.00,,---,0.00,VWS V14.01,2013-03-23 21:38:00,
2013-03-23 17:43:00,46.0,1.0,29.80,NNW,348,8.3,8.3,15,0.00,,---,0.00,VWS V14.01,2013-03-23 21:43:00,
2013-03-23 17:48:00,46.0,1.0,29.80,NW,322,5.8,5.8,15,0.00,,---,0.00,VWS V14.01,2013-03-23 21:48:00,
2013-03-23 17:53:00,46.0,1.0,29.80,West,273,13.2,13.2,15,0.00,,---,0.00,VWS V14.01,2013-03-23 21:53:00,
2013-03-23 17:58:00,46.0,1.0,29.80,West,266,8.1,8.1,15,0.00,,---,0.00,VWS V14.01,2013-03-23 21:58:00,
2013-03-23 18:03:00,46.0,1.0,29.80,WNW,289,5.8,5.8,15,0.00,,---,0.00,VWS V14.01,2013-03-23 22:03:00,
2013-03-23 18:08:00,45.9,0.8,29.80,WSW,237,4.9,4.9,15,0.00,,---,0.00,VWS V14.01,2013-03-23 22:08:00,
2013-03-23 18:13:00,45.9,0.8,29.80,WNW,295,6.3,6.3,15,0.00,,---,0.00,VWS V14.01,2013-03-23 22:13:00,
2013-03-23 18:19:00,45.5,0.6,29.80,North,2,10.5,10.5,15,0.00,,---,0.00,VWS V14.01,2013-03-23 22:19:00,
2013-03-23 18:24:00,45.1,0.3,29.80,WNW,299,11.0,11.0,15,0.00,,---,0.00,VWS V14.01,2013-03-23 22:24:00,
2013-03-23 18:29:00,45.1,0.3,29.80,NW,321,5.4,5.4,15,0.00,,---,0.00,VWS V14.01,2013-03-23 22:29:00,
2013-03-23 18:34:00,44.8,0.0,29.80,WSW,240,11.0,11.0,15,0.00,,---,0.00,VWS V14.01,2013-03-23 22:34:00,
2013-03-23 18:39:00,44.6,-0.2,29.80,West,261,5.4,5.4,15,0.00,,---,0.00,VWS V14.01,2013-03-23 22:39:00,
2013-03-23 18:44:00,44.1,-0.6,29.80,NNW,335,10.5,10.5,15,0.00,,---,0.00,VWS V14.01,2013-03-23 22:44:00,
2013-03-23 18:49:00,43.9,-0.8,29.83,NW,323,5.8,5.8,15,0.00,,---,0.00,VWS V14.01,2013-03-23 22:49:00,
2013-03-23 18:54:00,43.7,-0.9,29.83,West,276,8.3,8.3,15,0.00,,---,0.00,VWS V14.01,2013-03-23 22:54:00,
2013-03-23 18:59:00,43.7,-0.9,29.83,SSW,200,2.2,2.2,15,0.00,,---,0.00,VWS V14.01,2013-03-23 22:59:00,
2013-03-23 19:04:00,43.5,-1.1,29.83,WNW,296,10.1,10.1,15,0.00,,---,0.00,VWS V14.01,2013-03-23 23:04:00,
2013-03-23 19:09:00,43.2,-1.4,29.83,NW,319,5.8,5.8,15,0.00,,---,0.00,VWS V14.01,2013-03-23 23:09:00,
2013-03-23 19:14:00,43.0,-1.5,29.83,WSW,252,13.2,13.2,15,0.00,,---,0.00,VWS V14.01,2013-03-23 23:14:00,
2013-03-23 19:19:00,43.0,-1.5,29.83,WSW,252,11.0,11.0,15,0.00,,---,0.00,VWS V14.01,2013-03-23 23:19:00,
2013-03-23 19:24:00,42.6,-4.8,29.83,NNW,327,3.6,3.6,13,0.00,,---,0.00,VWS V14.01,2013-03-23 23:24:00,
2013-03-23 19:29:00,42.4,-4.9,29.83,SSW,203,2.7,2.7,13,0.00,,---,0.00,VWS V14.01,2013-03-23 23:29:00,
2013-03-23 19:34:00,42.3,-5.1,29.83,WNW,289,5.4,5.4,13,0.00,,---,0.00,VWS V14.01,2013-03-23 23:34:00,
2013-03-23 19:39:00,42.3,-5.1,29.83,West,275,5.8,5.8,13,0.00,,---,0.00,VWS V14.01,2013-03-23 23:39:00,
2013-03-23 19:44:00,42.3,-5.1,29.83,WNW,293,4.0,4.0,13,0.00,,---,0.00,VWS V14.01,2013-03-23 23:44:00,
2013-03-23 19:49:00,42.3,-5.1,29.83,WNW,300,2.7,2.7,13,0.00,,---,0.00,VWS V14.01,2013-03-23 23:49:00,
2013-03-23 19:54:00,41.4,-5.8,29.85,WSW,247,5.8,5.8,13,0.00,,---,0.00,VWS V14.01,2013-03-23 23:54:00,
2013-03-23 19:59:00,41.2,-5.9,29.85,WSW,247,5.8,5.8,13,0.00,,---,0.00,VWS V14.01,2013-03-23 23:59:00,
2013-03-23 20:04:00,41.0,-6.1,29.85,West,266,3.6,3.6,13,0.00,,---,0.00,VWS V14.01,2013-03-24 00:04:00,
2013-03-23 20:09:00,41.0,-6.1,29.85,WNW,289,5.4,5.4,13,0.00,,---,0.00,VWS V14.01,2013-03-24 00:09:00,
2013-03-23 20:14:00,40.8,-6.2,29.85,West,275,4.9,4.9,13,0.00,,---,0.00,VWS V14.01,2013-03-24 00:14:00,
2013-03-23 20:19:00,40.5,-6.5,29.85,NW,309,5.8,5.8,13,0.00,,---,0.00,VWS V14.01,2013-03-24 00:19:00,
2013-03-23 20:24:00,40.5,-6.5,29.85,NW,318,3.1,3.1,13,0.00,,---,0.00,VWS V14.01,2013-03-24 00:24:00,
2013-03-23 20:29:00,40.3,-6.7,29.85,NNW,345,4.0,4.0,13,0.00,,---,0.00,VWS V14.01,2013-03-24 00:29:00,
2013-03-23 20:34:00,40.1,-6.8,29.85,WNW,291,6.3,6.3,13,0.00,,---,0.00,VWS V14.01,2013-03-24 00:34:00,
2013-03-23 20:39:00,39.9,-6.9,29.85,WNW,291,6.3,6.3,13,0.00,,---,0.00,VWS V14.01,2013-03-24 00:39:00,
2013-03-23 20:44:00,39.4,-7.4,29.85,WNW,303,4.0,4.0,13,0.00,,---,0.00,VWS V14.01,2013-03-24 00:44:00,
2013-03-23 20:49:00,39.2,-7.5,29.85,WNW,299,3.1,3.1,13,0.00,,---,0.00,VWS V14.01,2013-03-24 00:49:00,
2013-03-23 20:54:00,38.8,-6.3,29.85,NNW,330,0.0,0.0,14,0.00,,---,0.00,VWS V14.01,2013-03-24 00:54:00,
2013-03-23 20:59:00,38.7,-6.4,29.85,WNW,294,0.0,0.0,14,0.00,,---,0.00,VWS V14.01,2013-03-24 00:59:00,
2013-03-23 21:04:00,37.9,-7.0,29.85,North,0,0.0,0.0,14,0.00,,---,0.00,VWS V14.01,2013-03-24 01:04:00,
2013-03-23 21:09:00,37.4,-7.4,29.85,NW,308,0.0,0.0,14,0.00,,---,0.00,VWS V14.01,2013-03-24 01:09:00,
2013-03-23 21:14:00,37.0,-7.7,29.88,NW,308,0.0,0.0,14,0.00,,---,0.00,VWS V14.01,2013-03-24 01:14:00,
2013-03-23 21:19:00,36.5,-8.2,29.88,SW,231,0.0,0.0,14,0.00,,---,0.00,VWS V14.01,2013-03-24 01:19:00,
2013-03-23 21:24:00,36.3,-8.3,29.88,SW,231,0.0,0.0,14,0.00,,---,0.00,VWS V14.01,2013-03-24 01:24:00,
2013-03-23 21:29:00,35.8,-8.7,29.88,NW,313,0.0,0.0,14,0.00,,---,0.00,VWS V14.01,2013-03-24 01:29:00,
2013-03-23 21:34:00,35.8,-8.7,29.88,West,273,0.0,0.0,14,0.00,,---,0.00,VWS V14.01,2013-03-24 01:34:00,
2013-03-23 21:39:00,35.8,-4.8,29.88,West,280,0.0,0.0,17,0.00,,---,0.00,VWS V14.01,2013-03-24 01:39:00,
2013-03-23 21:44:00,36.0,-4.6,29.88,West,279,3.6,3.6,17,0.00,,---,0.00,VWS V14.01,2013-03-24 01:44:00,
2013-03-23 21:49:00,36.1,-4.5,29.88,West,279,2.7,2.7,17,0.00,,---,0.00,VWS V14.01,2013-03-24 01:49:00,
2013-03-23 21:55:00,35.8,-4.8,29.88,WNW,299,0.0,0.0,17,0.00,,---,0.00,VWS V14.01,2013-03-24 01:55:00,
2013-03-23 22:00:00,35.8,-4.8,29.88,NW,318,0.0,0.0,17,0.00,,---,0.00,VWS V14.01,2013-03-24 02:00:00,
2013-03-23 22:05:00,35.1,-5.3,29.88,NW,318,0.0,0.0,17,0.00,,---,0.00,VWS V14.01,2013-03-24 02:05:00,
2013-03-23 22:10:00,34.3,-5.9,29.88,NW,318,0.0,0.0,17,0.00,,---,0.00,VWS V14.01,2013-03-24 02:10:00,
2013-03-23 22:15:00,34.0,-6.2,29.88,WNW,289,0.0,0.0,17,0.00,,---,0.00,VWS V14.01,2013-03-24 02:15:00,
2013-03-23 22:20:00,33.6,-5.3,29.88,WNW,289,0.0,0.0,18,0.00,,---,0.00,VWS V14.01,2013-03-24 02:20:00,
2013-03-23 22:25:00,33.6,-5.3,29.88,WNW,289,0.0,0.0,18,0.00,,---,0.00,VWS V14.01,2013-03-24 02:25:00,
2013-03-23 22:30:00,32.9,-5.9,29.88,WNW,289,0.0,0.0,18,0.00,,---,0.00,VWS V14.01,2013-03-24 02:30:00,
2013-03-23 22:35:00,32.9,-5.9,29.88,West,261,0.0,0.0,18,0.00,,---,0.00,VWS V14.01,2013-03-24 02:35:00,
2013-03-23 22:40:00,32.7,-6.1,29.88,WSW,255,3.1,3.1,18,0.00,,---,0.00,VWS V14.01,2013-03-24 02:40:00,
2013-03-23 22:45:00,33.1,-5.8,29.88,West,268,2.7,2.7,18,0.00,,---,0.00,VWS V14.01,2013-03-24 02:45:00,
2013-03-23 22:50:00,33.1,-5.8,29.88,West,270,4.9,4.9,18,0.00,,---,0.00,VWS V14.01,2013-03-24 02:50:00,
2013-03-23 22:55:00,33.8,-6.4,29.88,WNW,301,4.9,4.9,17,0.00,,---,0.00,VWS V14.01,2013-03-24 02:55:00,
2013-03-23 23:00:00,34.0,-6.2,29.88,West,260,4.0,4.0,17,0.00,,---,0.00,VWS V14.01,2013-03-24 03:00:00,
2013-03-23 23:05:00,34.5,-5.8,29.88,West,280,0.0,0.0,17,0.00,,---,0.00,VWS V14.01,2013-03-24 03:05:00,
2013-03-23 23:10:00,34.3,-5.9,29.88,West,274,2.2,2.2,17,0.00,,---,0.00,VWS V14.01,2013-03-24 03:10:00,
2013-03-23 23:15:00,34.3,-5.9,29.88,West,274,2.2,2.2,17,0.00,,---,0.00,VWS V14.01,2013-03-24 03:15:00,
2013-03-23 23:20:00,34.0,-6.2,29.88,NW,307,0.0,0.0,17,0.00,,---,0.00,VWS V14.01,2013-03-24 03:20:00,
2013-03-23 23:25:00,34.0,-6.2,29.88,NW,319,0.0,0.0,17,0.00,,---,0.43,VWS V14.01,2013-03-24 03:25:00,
2013-03-23 23:30:00,33.3,-5.7,29.88,WNW,285,3.1,3.1,18,0.00,,---,0.00,VWS V14.01,2013-03-24 03:30:00,
2013-03-23 23:35:00,33.1,-5.8,29.88,NW,307,3.1,3.1,18,0.00,,---,0.00,VWS V14.01,2013-03-24 03:35:00,
2013-03-23 23:40:00,33.3,-5.7,29.88,NNW,341,5.4,5.4,18,0.00,,---,0.00,VWS V14.01,2013-03-24 03:40:00,
2013-03-23 23:45:00,33.6,-3.2,29.88,WNW,291,3.6,3.6,20,0.00,,---,0.00,VWS V14.01,2013-03-24 03:45:00,
2013-03-23 23:50:00,34.0,-6.2,29.88,NNE,20,3.1,3.1,17,0.00,,---,0.00,VWS V14.01,2013-03-24 03:50:00,
2013-03-23 23:55:00,34.0,-6.2,29.88,NNE,20,3.1,3.1,17,0.00,,---,0.00,VWS V14.01,2013-03-24 03:55:00,